地図

経路データ

SID SEASON NUMBER BASIN SUBBASIN NAME ISO_TIME NATURE LAT LON WMO_WIND WMO_PRES WMO_AGENCY TRACK_TYPE DIST2LAND LANDFALL IFLAG USA_AGENCY USA_ATCF_ID USA_LAT USA_LON USA_RECORD USA_STATUS USA_WIND USA_PRES USA_SSHS USA_R34_NE USA_R34_SE USA_R34_SW USA_R34_NW USA_R50_NE USA_R50_SE USA_R50_SW USA_R50_NW USA_R64_NE USA_R64_SE USA_R64_SW USA_R64_NW USA_POCI USA_ROCI USA_RMW USA_EYE TOKYO_LAT TOKYO_LON TOKYO_GRADE TOKYO_WIND TOKYO_PRES TOKYO_R50_DIR TOKYO_R50_LONG TOKYO_R50_SHORT TOKYO_R30_DIR TOKYO_R30_LONG TOKYO_R30_SHORT TOKYO_LAND CMA_LAT CMA_LON CMA_CAT CMA_WIND CMA_PRES HKO_LAT HKO_LON HKO_CAT HKO_WIND HKO_PRES NEWDELHI_LAT NEWDELHI_LON NEWDELHI_GRADE NEWDELHI_WIND NEWDELHI_PRES NEWDELHI_CI NEWDELHI_DP NEWDELHI_POCI REUNION_LAT REUNION_LON REUNION_TYPE REUNION_WIND REUNION_PRES REUNION_TNUM REUNION_CI REUNION_RMW REUNION_R34_NE REUNION_R34_SE REUNION_R34_SW REUNION_R34_NW REUNION_R50_NE REUNION_R50_SE REUNION_R50_SW REUNION_R50_NW REUNION_R64_NE REUNION_R64_SE REUNION_R64_SW REUNION_R64_NW BOM_LAT BOM_LON BOM_TYPE BOM_WIND BOM_PRES BOM_TNUM BOM_CI BOM_RMW BOM_R34_NE BOM_R34_SE BOM_R34_SW BOM_R34_NW BOM_R50_NE BOM_R50_SE BOM_R50_SW BOM_R50_NW BOM_R64_NE BOM_R64_SE BOM_R64_SW BOM_R64_NW BOM_ROCI BOM_POCI BOM_EYE BOM_POS_METHOD BOM_PRES_METHOD NADI_LAT NADI_LON NADI_CAT NADI_WIND NADI_PRES WELLINGTON_LAT WELLINGTON_LON WELLINGTON_WIND WELLINGTON_PRES DS824_LAT DS824_LON DS824_STAGE DS824_WIND DS824_PRES TD9636_LAT TD9636_LON TD9636_STAGE TD9636_WIND TD9636_PRES TD9635_LAT TD9635_LON TD9635_WIND TD9635_PRES TD9635_ROCI NEUMANN_LAT NEUMANN_LON NEUMANN_CLASS NEUMANN_WIND NEUMANN_PRES MLC_LAT MLC_LON MLC_CLASS MLC_WIND MLC_PRES USA_GUST BOM_GUST BOM_GUST_PER REUNION_GUST REUNION_GUST_PER USA_SEAHGT USA_SEARAD_NE USA_SEARAD_SE USA_SEARAD_SW USA_SEARAD_NW STORM_SPEED STORM_DIR
1891324N12088 1891 61 NI BB NOT_NAMED 1891-11-20 00:00:00 TS 11.5000 87.7000 main 772 772 _________O____ -1 11.5000 87.7000 TC 64 3 42
1891324N12088 1891 61 NI BB NOT_NAMED 1891-11-20 03:00:00 TS 11.6067 87.7983 main 787 787 _________PO___ -1 11.6600 87.8475 TC 64 11.5000 87.7000 4 3 45
1891324N12088 1891 61 NI BB NOT_NAMED 1891-11-20 06:00:00 TS 11.7344 87.9431 main 802 802 _________OP___ -1 11.8000 88.0000 TC 64 11.6360 87.8576 4 4 50
1891324N12088 1891 61 NI BB NOT_NAMED 1891-11-20 09:00:00 TS 11.8475 88.0953 main 809 793 _________PP___ -1 11.9075 88.1575 TC 64 11.7676 88.0123 4 4 53
1891324N12088 1891 61 NI BB NOT_NAMED 1891-11-20 12:00:00 TS 11.9452 88.2304 main 793 778 _________OP___ -1 12.0000 88.3000 TC 64 11.8904 88.1608 4 3 51
1891324N12088 1891 61 NI BB NOT_NAMED 1891-11-20 15:00:00 TS 12.0500 88.3500 main 769 754 _________PO___ -1 12.1000 88.4000 TC 64 12.0000 88.3000 4 3 48
1891324N12088 1891 61 NI BB NOT_NAMED 1891-11-20 18:00:00 TS 12.1475 88.4641 main 754 738 _________OP___ -1 12.2000 88.5000 TC 64 12.0950 88.4282 4 3 52
1891324N12088 1891 61 NI BB NOT_NAMED 1891-11-20 21:00:00 TS 12.2387 88.5963 main 738 723 _________PP___ -1 12.2925 88.6425 TC 64 12.1849 88.5502 4 3 54
1891324N12088 1891 61 NI BB NOT_NAMED 1891-11-21 00:00:00 TS 12.3412 88.7360 main 723 692 _________OP___ -1 12.4000 88.8000 TC 64 12.2825 88.6720 4 4 50
1891324N12088 1891 61 NI BB NOT_NAMED 1891-11-21 03:00:00 TS 12.4675 88.8750 main 692 677 _________PO___ -1 12.5350 88.9500 TC 64 12.4000 88.8000 4 4 44
1891324N12088 1891 61 NI BB NOT_NAMED 1891-11-21 06:00:00 TS 12.6287 89.0173 main 677 646 _________OP___ -1 12.7000 89.1000 TC 64 12.5575 88.9347 4 4 38
1891324N12088 1891 61 NI BB NOT_NAMED 1891-11-21 09:00:00 TS 12.8175 89.1600 main 646 625 _________PP___ -1 12.9000 89.2425 TC 64 12.7349 89.0775 4 5 37
1891324N12088 1891 61 NI BB NOT_NAMED 1891-11-21 12:00:00 TS 13.0100 89.3158 main 625 595 _________OP___ -1 13.1000 89.4000 TC 64 12.9199 89.2316 4 5 42
1891324N12088 1891 61 NI BB NOT_NAMED 1891-11-21 15:00:00 TS 13.1788 89.4963 main 595 570 _________PO___ -1 13.2575 89.5925 TC 64 13.1000 89.4000 4 5 50
1891324N12088 1891 61 NI BB NOT_NAMED 1891-11-21 18:00:00 TS 13.3061 89.6769 main 570 555 _________OP___ -1 13.4000 89.8000 TC 64 13.2123 89.5538 4 4 55
1891324N12088 1891 61 NI BB NOT_NAMED 1891-11-21 21:00:00 TS 13.4185 89.8482 main 555 516 _________PP___ -1 13.5124 89.9703 TC 64 13.3246 89.7261 4 5 54
1891324N12088 1891 61 NI BB NOT_NAMED 1891-11-22 00:00:00 TS 13.5873 90.0677 main 516 471 _________OP___ -1 13.7000 90.2000 TC 64 13.4747 89.9353 4 7 49
1891324N12088 1891 61 NI BB NOT_NAMED 1891-11-22 03:00:00 TS 13.8775 90.3850 main 471 421 _________PO___ -1 14.0551 90.5699 TC 64 13.7000 90.2000 4 10 45
1891324N12088 1891 61 NI BB NOT_NAMED 1891-11-22 06:00:00 TS 14.2771 90.7690 main 411 362 _________OP___ -1 14.5000 91.0000 TC 64 14.0542 90.5380 4 11 42
1891324N12088 1891 61 NI BB NOT_NAMED 1891-11-22 09:00:00 TS 14.7163 91.1660 main 353 296 _________PP___ -1 14.9499 91.4001 TC 64 14.4827 90.9319 4 12 41
1891324N12088 1891 61 NI BB NOT_NAMED 1891-11-22 12:00:00 TS 15.1724 91.5800 main 292 239 _________OP___ -1 15.4000 91.8000 TC 64 14.9448 91.3600 4 12 42
1891324N12088 1891 61 NI BB NOT_NAMED 1891-11-22 15:00:00 TS 15.6074 91.9964 main 239 192 _________PO___ -1 15.8149 92.1927 TC 64 15.4000 91.8000 4 11 44
1891324N12088 1891 61 NI BB NOT_NAMED 1891-11-22 18:00:00 TS 15.9810 92.3906 main 192 153 _________OP___ -1 16.2000 92.6000 TC 64 15.8167 92.2336 4 11 47
1891324N12088 1891 61 NI BB NOT_NAMED 1891-11-22 21:00:00 TS 16.3418 92.8115 main 153 117 _________PP___ -1 16.5577 93.0397 TC 64 16.1978 92.6594 4 11 49
1891324N12088 1891 61 NI BB NOT_NAMED 1891-11-23 00:00:00 TS 16.6701 93.2204 main 119 95 _________OP___ -1 16.9000 93.5000 TC 64 16.5551 93.0805 4 9 50
1891324N12088 1891 61 NI BB NOT_NAMED 1891-11-23 03:00:00 NR 16.9000 93.5000 main 95 __________O___ -1 TC 16.9000 93.5000 4 7 49

IBTrACS Databaseについて

本データベースは、米国NOAAが公開する1842年以降の世界の熱帯低気圧のベストトラックデータアーカイブInternational Best Track Archive for Climate Stewardship (IBTrACS)を、ウェブで閲覧しやすい形式に変換したものです。

最終更新日:2021-11-26